If you wish to contribute or participate in the discussions about articles you are invited to join SKYbrary as a registered user

 Actions

Djerba-Zarzis

From SKYbrary Wiki

DTTJ
Airport
ICAO: DTTJ
Summary
Name Djerba-Zarzis
Region Africa
Territory Tunisia TN.gif
Location Djerba, Tunisia
Serving
Coordinates 33° 52' 30.00" N, 10° 46' 31.00" E
Runways
Designator Length Width Surface ROPS
9/27 3100 m10,170.604 ft
45 m147.638 ft
ASP yes/yes


METAR
Observation DTTJ 161400Z 10012KT CAVOK 23/07 Q1016 NOSIG
Station Djerba Mellita
Date/Time 16 April 2019 14:00:00
Wind direction 100°
Wind speed 12 kts
Lowest cloud amount clouds and visibility OK
Temperature 23°C
Dew point 7°C
Humidity 35%
QNH 1016 hPa
Weather condition n/a


Djerba-Zarzis International Airport

ICAO: DTTJ IATA: DJE

Description

Djerba - Zarzis International Airport is an airport serving Djerba in Tunisia.

Climatology

(Köppen climate classification BSh)

Maps

Terrain

Loading map...

Airport Layout

Loading map...


Accidents & Serious Incidents at or in vicinity of DTTJ

None on SKYbrary